Time;durP1;ratioP1;P1;durP2;ratioP2;P2;SDS_P1;SDS_P2;PMS_P1;PMS_P2;Temp;Humidity;BMP_temperature;BMP_pressure;BME280_temperature;BME280_humidity;BME280_pressure;Samples;Min_cycle;Max_cycle;Signal;HPM_P1;HPM_P2
2021/04/02 00:00:41;;;;;;;1.30;1.20;;;6.50;99.90;;;;;;5057731;28;20560;-72
2021/04/02 00:03:14;;;;;;;1.70;1.30;;;6.50;99.90;;;;;;5058752;28;20651;-71
2021/04/02 00:05:41;;;;;;;1.40;1.30;;;6.40;99.90;;;;;;5057993;28;20210;-73
2021/04/02 00:08:08;;;;;;;1.87;1.43;;;6.50;99.90;;;;;;5060832;28;20206;-74
2021/04/02 00:10:43;;;;;;;1.67;1.37;;;6.50;99.90;;;;;;5056127;28;20216;-74
2021/04/02 00:13:09;;;;;;;1.60;1.50;;;6.50;99.90;;;;;;5053003;28;20243;-73
2021/04/02 00:15:36;;;;;;;1.80;1.70;;;6.40;99.90;;;;;;5057959;28;20206;-73
2021/04/02 00:18:03;;;;;;;1.33;1.23;;;6.50;99.90;;;;;;5060202;28;20237;-74
2021/04/02 00:20:30;;;;;;;1.60;1.50;;;6.50;99.90;;;;;;5059008;28;20212;-72
2021/04/02 00:22:56;;;;;;;1.60;1.47;;;6.50;99.90;;;;;;5063707;28;20288;-72
2021/04/02 00:25:22;;;;;;;1.50;1.40;;;6.50;99.90;;;;;;5058181;28;20266;-73
2021/04/02 00:27:50;;;;;;;1.80;1.33;;;6.50;99.90;;;;;;5062592;28;20271;-72
2021/04/02 00:30:19;;;;;;;1.97;1.57;;;6.50;99.90;;;;;;5064240;28;20205;-72
2021/04/02 00:32:45;;;;;;;2.33;1.30;;;6.50;99.90;;;;;;5062024;28;20194;-72
2021/04/02 00:35:13;;;;;;;1.83;1.17;;;6.40;99.90;;;;;;5059641;28;20208;-73
2021/04/02 00:37:41;;;;;;;1.30;1.20;;;6.40;99.90;;;;;;5061702;28;20208;-73
2021/04/02 00:40:12;;;;;;;1.27;1.17;;;6.40;99.90;;;;;;5060802;28;20291;-74
2021/04/02 00:42:39;;;;;;;1.13;1.03;;;6.30;99.90;;;;;;5055992;28;20594;-73
2021/04/02 00:45:08;;;;;;;1.57;1.30;;;6.30;99.90;;;;;;5058983;28;20222;-72
2021/04/02 00:47:34;;;;;;;1.17;1.07;;;6.30;99.90;;;;;;5052200;28;20220;-72
2021/04/02 00:50:01;;;;;;;1.67;1.00;;;6.30;99.90;;;;;;5057238;28;20201;-73
2021/04/02 00:52:27;;;;;;;1.77;1.23;;;6.30;99.90;;;;;;5055830;28;20669;-72
2021/04/02 00:54:54;;;;;;;1.23;1.17;;;6.20;99.90;;;;;;5056703;28;20242;-72
2021/04/02 00:57:20;;;;;;;1.33;1.23;;;6.20;99.90;;;;;;5051995;28;20349;-72
2021/04/02 00:59:46;;;;;;;1.30;1.20;;;6.20;99.90;;;;;;5056771;28;20292;-71
2021/04/02 01:02:14;;;;;;;1.80;0.93;;;6.20;99.90;;;;;;5055847;28;20201;-72
2021/04/02 01:04:40;;;;;;;1.30;1.17;;;6.20;99.90;;;;;;5057113;28;20659;-73
2021/04/02 01:07:06;;;;;;;1.90;0.90;;;6.20;99.90;;;;;;5052400;28;20673;-74
2021/04/02 01:09:33;;;;;;;1.13;0.80;;;6.10;99.90;;;;;;5054629;28;20198;-71
2021/04/02 01:11:59;;;;;;;1.13;1.03;;;6.10;99.90;;;;;;5054119;28;20698;-72
2021/04/02 01:14:25;;;;;;;1.37;1.27;;;6.10;99.90;;;;;;5057598;28;20229;-73
2021/04/02 01:16:52;;;;;;;1.40;1.20;;;6.00;99.90;;;;;;5054316;28;20202;-72
2021/04/02 01:19:31;;;;;;;2.00;1.20;;;5.90;99.90;;;;;;5053579;28;20212;-72
2021/04/02 01:22:03;;;;;;;1.03;1.00;;;5.90;99.90;;;;;;5054344;28;20293;-73
2021/04/02 01:24:45;;;;;;;0.80;0.80;;;5.80;99.90;;;;;;5052813;28;20240;-74
2021/04/02 01:27:25;;;;;;;0.83;0.83;;;5.70;99.90;;;;;;5052479;28;20274;-74
2021/04/02 01:29:54;;;;;;;1.60;1.13;;;5.60;99.90;;;;;;5050490;28;20200;-74
2021/04/02 01:32:25;;;;;;;1.10;1.00;;;5.60;99.90;;;;;;5055055;28;20241;-74
2021/04/02 01:34:56;;;;;;;0.83;0.80;;;5.50;99.90;;;;;;5052579;28;20296;-73
2021/04/02 01:37:27;;;;;;;1.07;0.97;;;5.50;99.90;;;;;;5053037;28;20217;-73
2021/04/02 01:39:56;;;;;;;1.03;0.90;;;5.50;99.90;;;;;;5050949;28;20213;-72
2021/04/02 01:42:24;;;;;;;1.20;1.00;;;5.30;99.90;;;;;;5054508;28;20206;-73
2021/04/02 01:44:54;;;;;;;1.30;1.10;;;5.30;99.90;;;;;;5055684;28;20202;-74
2021/04/02 01:47:22;;;;;;;1.57;1.47;;;5.30;99.90;;;;;;5048030;28;20237;-73
2021/04/02 01:49:51;;;;;;;2.27;1.20;;;5.20;99.90;;;;;;5052918;28;20202;-74
2021/04/02 01:52:21;;;;;;;2.57;1.30;;;5.20;99.90;;;;;;5053742;28;20220;-74
2021/04/02 01:54:48;;;;;;;1.50;1.00;;;5.10;99.90;;;;;;5051372;28;20697;-73
2021/04/02 01:57:16;;;;;;;1.20;1.10;;;5.10;99.90;;;;;;5053634;28;20301;-72
2021/04/02 01:59:44;;;;;;;1.70;1.10;;;5.00;99.90;;;;;;5054941;28;20301;-73
2021/04/02 02:02:11;;;;;;;1.17;1.07;;;5.00;99.90;;;;;;5054424;28;20206;-74
2021/04/02 02:04:39;;;;;;;1.30;1.20;;;5.00;99.90;;;;;;5051224;28;20285;-74
2021/04/02 02:07:06;;;;;;;1.70;1.10;;;4.90;99.90;;;;;;5054601;28;20297;-73
2021/04/02 02:09:36;;;;;;;1.00;0.90;;;4.90;99.90;;;;;;5055320;28;20202;-73
2021/04/02 02:12:05;;;;;;;1.60;1.03;;;4.90;99.90;;;;;;5051486;28;20237;-74
2021/04/02 02:14:34;;;;;;;0.90;0.90;;;4.80;99.90;;;;;;5052423;28;20647;-74
2021/04/02 02:17:05;;;;;;;1.30;1.20;;;4.80;99.90;;;;;;5056904;28;20205;-73
2021/04/02 02:19:35;;;;;;;1.73;1.10;;;4.70;99.90;;;;;;5055734;28;20218;-73
2021/04/02 02:22:04;;;;;;;2.07;1.40;;;4.70;99.90;;;;;;5054814;28;20611;-73
2021/04/02 02:24:30;;;;;;;2.00;1.40;;;4.70;99.90;;;;;;5056718;28;20310;-72
2021/04/02 02:26:57;;;;;;;2.93;1.37;;;4.70;99.90;;;;;;5057559;28;20241;-74
2021/04/02 02:29:24;;;;;;;1.20;1.10;;;4.70;99.90;;;;;;5051559;28;20213;-72
2021/04/02 02:31:51;;;;;;;1.50;1.30;;;4.60;99.90;;;;;;5051223;28;20789;-73
2021/04/02 02:34:17;;;;;;;1.73;1.63;;;4.60;99.90;;;;;;5059772;28;20225;-73
2021/04/02 02:36:45;;;;;;;3.47;1.97;;;4.60;99.90;;;;;;5057734;28;20212;-72
2021/04/02 02:39:13;;;;;;;1.73;1.63;;;4.60;99.90;;;;;;5052159;28;20206;-72
2021/04/02 02:41:39;;;;;;;2.33;1.67;;;4.60;99.90;;;;;;5057852;28;20288;-74
2021/04/02 02:44:06;;;;;;;3.53;1.60;;;4.60;99.90;;;;;;5066538;28;20198;-73
2021/04/02 02:46:33;;;;;;;1.53;1.33;;;4.70;99.90;;;;;;5060697;28;20668;-72
2021/04/02 02:49:03;;;;;;;1.90;1.80;;;4.70;99.90;;;;;;5056928;28;20297;-73
2021/04/02 02:51:31;;;;;;;5.37;4.87;;;4.70;99.90;;;;;;5055320;28;20293;-72
2021/04/02 02:54:01;;;;;;;6.17;5.60;;;4.80;99.90;;;;;;5059504;28;20235;-73
2021/04/02 02:56:30;;;;;;;6.00;5.43;;;4.80;99.90;;;;;;5058601;28;20235;-73
2021/04/02 02:58:57;;;;;;;5.60;5.00;;;4.70;99.90;;;;;;5057666;28;20208;-73
2021/04/02 03:01:26;;;;;;;6.03;3.80;;;4.70;99.90;;;;;;5057040;28;20209;-73
2021/04/02 03:03:54;;;;;;;4.23;3.20;;;4.70;99.90;;;;;;5057824;28;20228;-74
2021/04/02 03:06:22;;;;;;;3.80;3.27;;;4.80;99.90;;;;;;5056161;28;20210;-73
2021/04/02 03:08:52;;;;;;;4.67;3.27;;;4.70;99.90;;;;;;5059120;28;20652;-74
2021/04/02 03:11:21;;;;;;;3.87;3.47;;;4.70;99.90;;;;;;5059427;28;20296;-74
2021/04/02 03:13:49;;;;;;;3.87;3.10;;;4.70;99.90;;;;;;5060998;28;20686;-72
2021/04/02 03:16:16;;;;;;;4.47;3.27;;;4.70;99.90;;;;;;5062372;28;20711;-74
2021/04/02 03:18:47;;;;;;;4.50;3.73;;;4.70;99.90;;;;;;5057271;28;20247;-73
2021/04/02 03:21:16;;;;;;;4.37;3.33;;;4.70;99.90;;;;;;5057960;28;20297;-73
2021/04/02 03:23:44;;;;;;;7.60;5.70;;;4.70;99.90;;;;;;5057192;28;20226;-71
2021/04/02 03:26:12;;;;;;;8.83;5.27;;;4.70;99.90;;;;;;5056431;28;20212;-73
2021/04/02 03:28:40;;;;;;;4.97;4.47;;;4.70;99.90;;;;;;5062074;28;20244;-72
2021/04/02 03:31:06;;;;;;;5.03;4.03;;;4.70;99.90;;;;;;5057648;28;20205;-73
2021/04/02 03:33:39;;;;;;;5.80;3.50;;;4.70;99.90;;;;;;5060242;28;20671;-74
2021/04/02 03:36:09;;;;;;;5.53;4.63;;;4.70;99.90;;;;;;5056729;28;20297;-72
2021/04/02 03:38:38;;;;;;;5.10;4.50;;;4.70;99.90;;;;;;5059358;28;20212;-72
2021/04/02 03:41:10;;;;;;;4.97;3.73;;;4.70;99.90;;;;;;5052373;28;20210;-73
2021/04/02 03:43:38;;;;;;;3.83;3.53;;;4.70;99.90;;;;;;5056608;28;20204;-75
2021/04/02 03:46:10;;;;;;;3.27;2.93;;;4.70;99.90;;;;;;5053535;28;20321;-73
2021/04/02 03:48:41;;;;;;;3.70;3.30;;;4.70;99.90;;;;;;5056581;28;20217;-72
2021/04/02 03:51:10;;;;;;;3.97;2.90;;;4.80;99.90;;;;;;5061749;28;20679;-74
2021/04/02 03:53:41;;;;;;;3.23;2.70;;;4.80;99.90;;;;;;5056305;28;20229;-74
2021/04/02 03:56:12;;;;;;;5.17;2.47;;;4.70;99.90;;;;;;5053162;28;20198;-73
2021/04/02 03:58:42;;;;;;;2.83;2.43;;;4.70;99.90;;;;;;5054166;28;20957;-72
2021/04/02 04:01:11;;;;;;;3.90;2.97;;;4.70;99.90;;;;;;5053648;28;20213;-72
2021/04/02 04:03:40;;;;;;;4.40;3.40;;;4.80;99.90;;;;;;5052376;28;20296;-72
2021/04/02 04:06:09;;;;;;;2.43;2.23;;;4.70;99.90;;;;;;5053544;28;20216;-73
2021/04/02 04:08:37;;;;;;;8.20;5.43;;;4.80;99.90;;;;;;5054873;28;20308;-73
2021/04/02 04:11:04;;;;;;;5.10;4.47;;;4.90;99.90;;;;;;5055806;28;20213;-73
2021/04/02 04:13:34;;;;;;;4.07;2.77;;;4.80;99.90;;;;;;5058322;28;20233;-73
2021/04/02 04:16:02;;;;;;;4.50;3.10;;;4.90;99.90;;;;;;5052485;28;20237;-71
2021/04/02 04:18:32;;;;;;;7.70;3.83;;;4.90;99.90;;;;;;5054395;28;20206;-73
2021/04/02 04:21:02;;;;;;;5.37;4.57;;;4.80;99.90;;;;;;5070193;28;20249;-74
2021/04/02 04:23:29;;;;;;;11.93;6.60;;;4.80;99.90;;;;;;5058553;28;20684;-73
2021/04/02 04:25:58;;;;;;;6.53;5.80;;;4.80;99.90;;;;;;5052611;28;20202;-73
2021/04/02 04:28:27;;;;;;;9.67;7.17;;;4.70;99.90;;;;;;5050048;28;20549;-73
2021/04/02 04:30:58;;;;;;;9.20;8.17;;;4.70;99.90;;;;;;5052952;28;20217;-73
2021/04/02 04:33:25;;;;;;;13.03;10.27;;;4.70;99.90;;;;;;5056037;28;20222;-73
2021/04/02 04:35:53;;;;;;;19.07;13.03;;;4.70;99.90;;;;;;5052576;28;20198;-72
2021/04/02 04:38:21;;;;;;;17.07;14.47;;;4.70;99.90;;;;;;5055416;28;20203;-71
2021/04/02 04:40:51;;;;;;;20.07;14.83;;;4.70;99.90;;;;;;5054597;28;20212;-72
2021/04/02 04:43:19;;;;;;;18.13;14.40;;;4.70;99.90;;;;;;5052004;28;20205;-72
2021/04/02 04:45:45;;;;;;;16.03;12.90;;;4.80;99.90;;;;;;5053519;28;20292;-72
2021/04/02 04:48:12;;;;;;;14.90;13.20;;;4.80;99.90;;;;;;5049248;28;20217;-72
2021/04/02 04:50:39;;;;;;;14.67;12.07;;;4.80;99.90;;;;;;5053799;28;20209;-71
2021/04/02 04:53:09;;;;;;;16.47;12.93;;;4.90;99.90;;;;;;5050969;28;20223;-72
2021/04/02 04:55:39;;;;;;;17.37;14.00;;;4.90;99.90;;;;;;5052994;28;20214;-71
2021/04/02 04:58:10;;;;;;;17.37;15.53;;;5.00;99.90;;;;;;5056836;28;20655;-72
2021/04/02 05:00:39;;;;;;;18.03;15.23;;;5.00;99.90;;;;;;5053293;28;20252;-72
2021/04/02 05:03:08;;;;;;;20.57;15.10;;;5.00;99.90;;;;;;5057092;28;20298;-72
2021/04/02 05:05:38;;;;;;;17.47;12.87;;;5.00;99.90;;;;;;5055051;28;20209;-74
2021/04/02 05:08:09;;;;;;;21.13;14.43;;;5.10;99.90;;;;;;5053936;28;20904;-71
2021/04/02 05:10:38;;;;;;;17.07;14.53;;;5.10;99.90;;;;;;5057672;28;20202;-72
2021/04/02 05:13:07;;;;;;;18.60;14.10;;;5.10;99.90;;;;;;5054889;28;20695;-71
2021/04/02 05:15:35;;;;;;;17.17;14.00;;;5.20;99.90;;;;;;5056380;28;20198;-71
2021/04/02 05:18:02;;;;;;;15.60;13.23;;;5.20;99.90;;;;;;5053053;28;20293;-71
2021/04/02 05:20:37;;;;;;;19.13;13.33;;;5.20;99.90;;;;;;5050968;28;20229;-72
2021/04/02 05:23:03;;;;;;;12.37;9.57;;;5.20;99.90;;;;;;5059254;28;20207;-72
2021/04/02 05:25:30;;;;;;;10.73;8.17;;;5.20;99.90;;;;;;5050099;28;20288;-72
2021/04/02 05:27:57;;;;;;;11.77;6.57;;;5.20;99.90;;;;;;5053865;28;20288;-73
2021/04/02 05:30:25;;;;;;;8.87;5.67;;;5.30;99.90;;;;;;5056081;28;20545;-71
2021/04/02 05:32:51;;;;;;;9.60;4.83;;;5.40;99.90;;;;;;5054116;28;20636;-72
2021/04/02 05:35:17;;;;;;;6.70;4.80;;;5.40;99.90;;;;;;5052637;28;20283;-72
2021/04/02 05:37:44;;;;;;;8.27;4.57;;;5.40;99.90;;;;;;5053462;28;20301;-71
2021/04/02 05:40:11;;;;;;;5.30;4.60;;;5.40;99.90;;;;;;5058189;28;20311;-72
2021/04/02 05:42:46;;;;;;;6.27;4.77;;;5.40;99.90;;;;;;5055650;28;20210;-70
2021/04/02 05:45:15;;;;;;;8.07;6.43;;;5.50;99.90;;;;;;5049119;28;20297;-72
2021/04/02 05:47:43;;;;;;;8.97;7.13;;;5.50;99.90;;;;;;5059657;28;20206;-72
2021/04/02 05:50:11;;;;;;;9.17;7.60;;;5.50;99.90;;;;;;5059592;28;20236;-72
2021/04/02 05:52:39;;;;;;;11.37;7.90;;;5.50;99.90;;;;;;5051142;28;20304;-73
2021/04/02 05:55:08;;;;;;;8.70;7.13;;;5.50;99.90;;;;;;5050785;28;20264;-72
2021/04/02 05:57:35;;;;;;;9.03;7.13;;;5.50;99.90;;;;;;5051130;28;20206;-72
2021/04/02 06:00:05;;;;;;;9.27;7.10;;;5.60;99.90;;;;;;5050880;28;20285;-73
2021/04/02 06:02:32;;;;;;;8.20;6.87;;;5.60;99.90;;;;;;5057490;28;20198;-73
2021/04/02 06:05:01;;;;;;;10.00;6.73;;;5.60;99.90;;;;;;5054126;28;20197;-73
2021/04/02 06:07:27;;;;;;;8.83;6.20;;;5.70;99.90;;;;;;5055300;28;20206;-72
2021/04/02 06:09:54;;;;;;;8.20;5.97;;;5.80;99.90;;;;;;5056008;28;20297;-73
2021/04/02 06:12:24;;;;;;;6.40;5.53;;;5.80;99.90;;;;;;5057138;28;20253;-72
2021/04/02 06:14:51;;;;;;;7.93;6.03;;;5.80;99.90;;;;;;5049247;28;20740;-73
2021/04/02 06:17:18;;;;;;;8.87;5.50;;;5.90;99.90;;;;;;5051226;28;20292;-72
2021/04/02 06:19:44;;;;;;;6.33;5.33;;;5.80;99.90;;;;;;5052719;28;20233;-72
2021/04/02 06:22:11;;;;;;;6.97;5.53;;;5.80;99.90;;;;;;5053708;28;20584;-71
2021/04/02 06:24:40;;;;;;;6.97;5.63;;;5.90;99.90;;;;;;5051176;28;20209;-71
2021/04/02 06:27:08;;;;;;;8.77;5.40;;;6.00;99.90;;;;;;5054845;28;20205;-73
2021/04/02 06:29:38;;;;;;;6.23;4.70;;;6.10;99.90;;;;;;5056057;28;20212;-72
2021/04/02 06:32:08;;;;;;;5.30;4.60;;;6.20;99.90;;;;;;5053103;28;20216;-72
2021/04/02 06:34:44;;;;;;;7.07;4.93;;;6.30;99.90;;;;;;5053322;28;20226;-71
2021/04/02 06:37:11;;;;;;;6.60;5.13;;;6.30;99.90;;;;;;5045534;28;20319;-72
2021/04/02 06:39:37;;;;;;;6.33;5.00;;;6.40;99.90;;;;;;5054952;28;20297;-72
2021/04/02 06:42:07;;;;;;;5.70;5.10;;;6.60;99.90;;;;;;5056134;28;20731;-69
2021/04/02 06:44:35;;;;;;;5.40;4.67;;;6.80;99.90;;;;;;5060639;28;20233;-70
2021/04/02 06:47:01;;;;;;;6.73;5.70;;;6.90;99.90;;;;;;5055904;28;20693;-69
2021/04/02 06:49:28;;;;;;;6.60;5.90;;;6.90;99.90;;;;;;5052144;28;20240;-72
2021/04/02 06:51:55;;;;;;;7.70;5.70;;;6.90;99.90;;;;;;5052757;28;20210;-71
2021/04/02 06:54:24;;;;;;;7.27;5.80;;;6.90;99.90;;;;;;5051028;28;20253;-72
2021/04/02 06:56:58;;;;;;;8.63;6.10;;;6.90;99.90;;;;;;5049473;28;20293;-74
2021/04/02 06:59:25;;;;;;;10.50;6.27;;;6.90;99.90;;;;;;5046772;28;20218;-72
2021/04/02 07:01:55;;;;;;;10.70;6.60;;;6.80;99.90;;;;;;5051333;28;20455;-72
2021/04/02 07:04:24;;;;;;;9.63;6.93;;;6.70;99.90;;;;;;5055397;28;20289;-73
2021/04/02 07:06:52;;;;;;;10.73;7.13;;;6.80;99.90;;;;;;5053085;28;20203;-73
2021/04/02 07:09:22;;;;;;;13.13;7.00;;;6.90;99.90;;;;;;5052572;28;20710;-75
2021/04/02 07:11:52;;;;;;;9.13;6.60;;;7.00;99.90;;;;;;5047553;28;20333;-72
2021/04/02 07:14:20;;;;;;;10.03;7.10;;;7.00;99.90;;;;;;5049544;28;20233;-73
2021/04/02 07:16:47;;;;;;;8.37;6.90;;;7.00;99.90;;;;;;5050065;28;20240;-74
2021/04/02 07:19:15;;;;;;;8.07;6.27;;;7.10;99.90;;;;;;5052866;28;20203;-77
2021/04/02 07:21:43;;;;;;;9.97;5.87;;;7.20;99.90;;;;;;5053934;28;20209;-74
2021/04/02 07:24:09;;;;;;;7.50;5.30;;;7.20;99.90;;;;;;5058191;28;20206;-75
2021/04/02 07:26:38;;;;;;;5.90;5.30;;;7.30;99.90;;;;;;5058376;28;20291;-76
2021/04/02 07:29:05;;;;;;;6.27;5.67;;;7.30;99.90;;;;;;5055754;28;20237;-74
2021/04/02 07:31:33;;;;;;;6.60;5.90;;;7.30;99.90;;;;;;5060795;28;20213;-76
2021/04/02 07:34:00;;;;;;;5.43;4.20;;;7.40;99.90;;;;;;5057649;28;20275;-77
2021/04/02 07:36:28;;;;;;;6.57;4.87;;;7.60;99.90;;;;;;5059453;28;20205;-76
2021/04/02 07:38:54;;;;;;;8.17;5.13;;;7.70;99.90;;;;;;5053649;28;20624;-73
2021/04/02 07:41:22;;;;;;;7.27;4.97;;;7.80;99.90;;;;;;5052340;28;20220;-74
2021/04/02 07:43:53;;;;;;;5.00;4.50;;;7.90;99.90;;;;;;5056497;28;20206;-74
2021/04/02 07:46:23;;;;;;;5.60;4.33;;;8.10;99.90;;;;;;5059157;28;20556;-73
2021/04/02 07:48:51;;;;;;;4.77;4.10;;;8.20;99.90;;;;;;5053022;28;20652;-72
2021/04/02 07:51:20;;;;;;;4.43;3.80;;;8.30;99.90;;;;;;5056406;28;20220;-72
2021/04/02 07:53:46;;;;;;;4.03;3.63;;;8.50;99.90;;;;;;5060775;28;20646;-74
2021/04/02 07:56:14;;;;;;;4.90;3.60;;;8.50;99.90;;;;;;5053403;28;20609;-72
2021/04/02 07:58:47;;;;;;;4.53;3.87;;;8.60;99.90;;;;;;5051143;28;20245;-72
2021/04/02 08:01:17;;;;;;;4.27;3.77;;;8.90;99.90;;;;;;5049108;28;20308;-70
2021/04/02 08:03:45;;;;;;;5.77;3.40;;;9.20;99.90;;;;;;5050030;28;20301;-70
2021/04/02 08:06:27;;;;;;;3.53;2.90;;;9.30;99.90;;;;;;5056582;28;20247;-72
2021/04/02 08:08:54;;;;;;;4.27;3.27;;;9.50;99.30;;;;;;5056389;28;20205;-71
2021/04/02 08:11:28;;;;;;;5.37;3.47;;;9.70;97.80;;;;;;5060171;28;20210;-71
2021/04/02 08:13:58;;;;;;;4.67;3.40;;;9.80;97.20;;;;;;5061617;28;20225;-70
2021/04/02 08:16:46;;;;;;;3.00;2.70;;;10.10;96.50;;;;;;5053050;28;20206;-71
2021/04/02 08:19:15;;;;;;;4.20;2.93;;;10.30;94.70;;;;;;5054491;28;20241;-70
2021/04/02 08:21:43;;;;;;;4.67;2.33;;;10.40;93.20;;;;;;5060234;28;20210;-70
2021/04/02 08:24:12;;;;;;;3.00;2.70;;;10.50;92.30;;;;;;5054518;28;20279;-71
2021/04/02 08:26:40;;;;;;;2.90;2.27;;;10.60;91.70;;;;;;5055701;28;20721;-71
2021/04/02 08:29:09;;;;;;;3.67;2.50;;;10.80;91.30;;;;;;5050416;28;20297;-69
2021/04/02 08:31:40;;;;;;;3.23;2.87;;;11.00;88.30;;;;;;5053728;28;20233;-71
2021/04/02 08:34:07;;;;;;;2.87;2.37;;;10.90;85.70;;;;;;5051871;28;20371;-71
2021/04/02 08:36:33;;;;;;;3.20;2.57;;;11.10;85.00;;;;;;5052794;28;20236;-71
2021/04/02 08:39:00;;;;;;;6.73;2.37;;;11.20;82.80;;;;;;5055259;28;20622;-71
2021/04/02 08:41:30;;;;;;;6.13;2.17;;;11.30;80.90;;;;;;5049620;28;20239;-72
2021/04/02 08:43:57;;;;;;;4.07;3.10;;;11.50;78.40;;;;;;5053854;28;20217;-70
2021/04/02 08:46:43;;;;;;;2.30;1.83;;;11.60;77.40;;;;;;5054257;28;20202;-71
2021/04/02 08:49:12;;;;;;;2.70;1.97;;;11.90;75.60;;;;;;5056799;28;20288;-72
2021/04/02 08:51:39;;;;;;;4.07;1.90;;;12.10;71.00;;;;;;5053877;28;20210;-72
2021/04/02 08:54:13;;;;;;;2.33;1.60;;;12.20;68.40;;;;;;5052048;28;21078;-70
2021/04/02 08:56:40;;;;;;;2.43;2.00;;;12.20;66.60;;;;;;5052853;28;20208;-70
2021/04/02 08:59:09;;;;;;;3.50;1.77;;;12.30;66.10;;;;;;5054895;28;20203;-71
2021/04/02 09:01:41;;;;;;;2.23;1.70;;;12.50;66.10;;;;;;5052911;28;20213;-72
2021/04/02 09:04:10;;;;;;;1.60;1.20;;;12.90;67.40;;;;;;5052973;28;20206;-72
2021/04/02 09:06:37;;;;;;;2.30;1.87;;;13.00;62.80;;;;;;5049547;28;20214;-72
2021/04/02 09:09:12;;;;;;;3.63;1.53;;;13.00;60.40;;;;;;5050685;28;20207;-73
2021/04/02 09:11:38;;;;;;;2.00;1.37;;;13.00;60.20;;;;;;5053196;28;20274;-72
2021/04/02 09:14:09;;;;;;;2.63;1.10;;;13.10;64.00;;;;;;5049032;28;20288;-72
2021/04/02 09:16:37;;;;;;;2.40;1.30;;;13.40;61.30;;;;;;5051919;28;20595;-73
2021/04/02 09:19:05;;;;;;;1.40;1.30;;;14.90;63.10;;;;;;5052098;28;20214;-73
2021/04/02 09:21:32;;;;;;;3.30;1.67;;;16.50;56.50;;;;;;5054330;28;20618;-73
2021/04/02 09:24:00;;;;;;;2.20;1.70;;;18.00;50.60;;;;;;5049711;28;20880;-73
2021/04/02 09:26:28;;;;;;;3.27;1.57;;;19.10;47.40;;;;;;5053828;28;20244;-71
2021/04/02 09:28:57;;;;;;;1.67;1.17;;;20.00;43.50;;;;;;5055712;28;20210;-72
2021/04/02 09:31:25;;;;;;;2.20;1.40;;;20.70;40.00;;;;;;5055687;28;20202;-72
2021/04/02 09:33:54;;;;;;;2.37;1.10;;;21.20;40.00;;;;;;5050170;28;20635;-71
2021/04/02 09:36:23;;;;;;;1.77;1.27;;;21.40;37.40;;;;;;5052786;28;20198;-72
2021/04/02 09:38:50;;;;;;;1.63;1.20;;;21.20;37.40;;;;;;5055519;28;20238;-70
2021/04/02 09:41:24;;;;;;;1.65;1.13;;;21.20;37.90;;;;;;5055738;28;20216;-72
2021/04/02 09:43:52;;;;;;;2.70;1.10;;;21.50;36.60;;;;;;5054137;28;20210;-74
2021/04/02 09:46:37;;;;;;;4.90;1.75;;;21.60;36.10;;;;;;5057941;28;20292;-73
2021/04/02 09:49:06;;;;;;;1.73;1.20;;;21.70;35.70;;;;;;5056859;28;20678;-72
2021/04/02 09:51:35;;;;;;;1.50;1.20;;;21.30;34.70;;;;;;5052387;28;20228;-71
2021/04/02 09:54:02;;;;;;;1.15;1.02;;;20.70;35.60;;;;;;5053542;28;20222;-74
2021/04/02 09:56:29;;;;;;;2.28;1.00;;;20.60;36.10;;;;;;5048864;28;20229;-71
2021/04/02 09:58:56;;;;;;;1.52;1.20;;;20.60;35.10;;;;;;5050111;28;20302;-72
2021/04/02 10:01:22;;;;;;;2.65;1.67;;;20.40;34.70;;;;;;5053753;28;20206;-72
2021/04/02 10:03:50;;;;;;;1.45;1.20;;;20.20;34.70;;;;;;5057968;28;20222;-73
2021/04/02 10:06:17;;;;;;;1.45;1.25;;;19.80;35.10;;;;;;5056128;28;20202;-73
2021/04/02 10:08:44;;;;;;;1.45;1.10;;;19.60;35.50;;;;;;5052777;28;20355;-73
2021/04/02 10:11:11;;;;;;;1.40;0.97;;;19.50;35.40;;;;;;5052769;28;20673;-71
2021/04/02 10:13:38;;;;;;;1.47;1.13;;;19.50;35.70;;;;;;5049332;28;20253;-68
2021/04/02 10:16:05;;;;;;;2.85;1.48;;;19.50;36.10;;;;;;5052674;28;20202;-68
2021/04/02 10:18:32;;;;;;;1.40;1.30;;;19.50;34.60;;;;;;5053671;28;20720;-71
2021/04/02 10:20:58;;;;;;;1.47;1.10;;;19.30;33.50;;;;;;5050751;28;20339;-73
2021/04/02 10:23:25;;;;;;;2.08;1.13;;;19.20;34.30;;;;;;5053300;28;20270;-72
2021/04/02 10:25:52;;;;;;;1.63;1.25;;;19.10;35.40;;;;;;5057021;28;20757;-70
2021/04/02 10:28:19;;;;;;;1.38;1.08;;;19.30;35.60;;;;;;5052223;28;20271;-70
2021/04/02 10:30:45;;;;;;;1.65;1.20;;;19.50;35.30;;;;;;5051147;28;20717;-71
2021/04/02 10:33:12;;;;;;;1.00;0.98;;;19.80;34.60;;;;;;5055815;28;20255;-71
2021/04/02 10:35:38;;;;;;;1.80;1.10;;;20.00;34.40;;;;;;5055482;28;20743;-71
2021/04/02 10:38:05;;;;;;;1.70;1.35;;;20.10;33.80;;;;;;5056523;28;20257;-73
2021/04/02 10:40:33;;;;;;;2.08;0.90;;;20.30;34.10;;;;;;5051224;28;20213;-72
2021/04/02 10:43:01;;;;;;;4.18;1.70;;;20.40;33.30;;;;;;5050513;28;20224;-72
2021/04/02 10:45:28;;;;;;;1.45;1.10;;;20.50;33.50;;;;;;5057298;28;20206;-71
2021/04/02 10:47:54;;;;;;;1.73;1.42;;;20.50;32.60;;;;;;5049295;28;20214;-72
2021/04/02 10:50:21;;;;;;;1.77;1.67;;;20.60;32.20;;;;;;5055303;28;20355;-72
2021/04/02 10:52:48;;;;;;;1.70;1.20;;;20.40;32.20;;;;;;5053729;28;20598;-70
2021/04/02 10:55:15;;;;;;;1.50;1.40;;;20.00;31.60;;;;;;5055512;28;20217;-70
2021/04/02 10:57:41;;;;;;;1.50;1.40;;;19.70;31.50;;;;;;5050713;28;20748;-70
2021/04/02 11:00:11;;;;;;;2.33;1.50;;;19.70;31.30;;;;;;5057514;28;20248;-71
2021/04/02 11:02:38;;;;;;;1.30;1.20;;;19.80;30.80;;;;;;5053707;28;20202;-70
2021/04/02 11:05:06;;;;;;;1.67;1.10;;;19.90;31.40;;;;;;5050983;28;20257;-71
2021/04/02 11:07:32;;;;;;;1.38;1.20;;;20.10;31.40;;;;;;5052824;28;20297;-72
2021/04/02 11:09:59;;;;;;;2.38;1.15;;;20.20;31.40;;;;;;5049903;28;20232;-71
2021/04/02 11:12:29;;;;;;;3.30;1.20;;;20.40;31.40;;;;;;5050620;28;20237;-72
2021/04/02 11:14:56;;;;;;;2.33;1.17;;;20.60;31.50;;;;;;5049882;28;20571;-70
2021/04/02 11:17:24;;;;;;;2.00;1.73;;;20.80;30.60;;;;;;5050346;28;20206;-71
2021/04/02 11:19:52;;;;;;;2.75;1.33;;;20.70;30.00;;;;;;5046120;28;20664;-71
2021/04/02 11:22:18;;;;;;;1.30;1.20;;;20.60;30.60;;;;;;5048545;28;20217;-69
2021/04/02 11:24:45;;;;;;;2.13;1.20;;;20.40;31.10;;;;;;5055340;28;20209;-71
2021/04/02 11:27:11;;;;;;;1.70;1.38;;;20.50;31.80;;;;;;5051121;28;20348;-68
2021/04/02 11:29:38;;;;;;;3.08;1.40;;;20.60;31.30;;;;;;5051076;28;20209;-68
2021/04/02 11:32:06;;;;;;;2.95;1.45;;;20.50;31.70;;;;;;5051522;28;20201;-68
2021/04/02 11:34:34;;;;;;;1.85;1.30;;;20.60;31.50;;;;;;5052215;28;20226;-68
2021/04/02 11:37:00;;;;;;;2.10;1.60;;;20.50;31.00;;;;;;5051046;28;20283;-68
2021/04/02 11:39:27;;;;;;;1.83;1.50;;;20.50;31.30;;;;;;5046769;28;20638;-74
2021/04/02 11:41:54;;;;;;;1.95;1.40;;;20.30;31.30;;;;;;5052374;28;20492;-72
2021/04/02 11:44:21;;;;;;;1.30;1.20;;;20.30;31.50;;;;;;5054062;28;20214;-74
2021/04/02 11:46:48;;;;;;;1.42;1.10;;;20.20;31.60;;;;;;5056918;28;20216;-74
2021/04/02 11:49:14;;;;;;;5.30;1.45;;;20.20;31.90;;;;;;5055915;28;20664;-75
2021/04/02 11:51:42;;;;;;;1.75;1.15;;;20.30;31.70;;;;;;5056283;28;20234;-74
2021/04/02 11:54:08;;;;;;;1.20;1.10;;;20.20;30.80;;;;;;5056446;28;20228;-75
2021/04/02 11:56:35;;;;;;;2.08;1.20;;;20.10;30.70;;;;;;5052672;28;20255;-76
2021/04/02 11:59:01;;;;;;;4.35;2.15;;;19.80;30.00;;;;;;5046365;28;20210;-75
2021/04/02 12:01:28;;;;;;;1.85;1.30;;;19.70;29.40;;;;;;5054943;28;20326;-71
2021/04/02 12:03:54;;;;;;;1.40;1.30;;;19.40;29.90;;;;;;5056645;28;20220;-75
2021/04/02 12:06:21;;;;;;;1.60;1.20;;;19.40;30.90;;;;;;5055145;28;20214;-72
2021/04/02 12:08:48;;;;;;;1.65;1.20;;;19.40;31.20;;;;;;5052579;28;20202;-72
2021/04/02 12:11:15;;;;;;;3.05;1.58;;;19.70;31.40;;;;;;5055490;28;20271;-73
2021/04/02 12:13:42;;;;;;;2.08;1.48;;;19.70;31.00;;;;;;5050427;28;20238;-71
2021/04/02 12:16:08;;;;;;;1.10;1.08;;;19.60;31.80;;;;;;5047953;28;20329;-71
2021/04/02 12:18:35;;;;;;;2.67;1.50;;;19.80;31.60;;;;;;5060168;28;20651;-72
2021/04/02 12:21:01;;;;;;;1.63;1.35;;;20.10;30.70;;;;;;5058969;28;20308;-72
2021/04/02 12:23:28;;;;;;;1.40;1.23;;;20.20;30.30;;;;;;5055687;28;20294;-67
2021/04/02 12:25:55;;;;;;;2.25;1.75;;;19.90;31.00;;;;;;5055761;28;20236;-71
2021/04/02 12:28:21;;;;;;;1.20;1.10;;;19.80;31.40;;;;;;5050231;28;20293;-70
2021/04/02 12:30:48;;;;;;;3.00;2.00;;;19.80;31.80;;;;;;5054865;28;20289;-71
2021/04/02 12:33:14;;;;;;;1.67;1.58;;;19.90;31.70;;;;;;5044177;28;20623;-70
2021/04/02 12:35:41;;;;;;;8.98;2.70;;;19.90;32.20;;;;;;5053837;28;20305;-72
2021/04/02 12:38:08;;;;;;;4.60;1.80;;;19.70;32.90;;;;;;5055536;28;20293;-71
2021/04/02 12:40:36;;;;;;;3.55;1.88;;;19.60;34.20;;;;;;5054102;28;20236;-70
2021/04/02 12:43:04;;;;;;;1.45;1.35;;;19.50;34.30;;;;;;5053819;28;20623;-72
2021/04/02 12:45:31;;;;;;;1.67;1.58;;;19.60;34.10;;;;;;5054099;28;20208;-70
2021/04/02 12:47:58;;;;;;;1.67;1.58;;;19.70;33.00;;;;;;5054218;28;20241;-73
2021/04/02 12:50:26;;;;;;;2.35;1.38;;;19.60;32.80;;;;;;5056383;28;20210;-73
2021/04/02 12:52:53;;;;;;;2.22;1.30;;;19.50;32.70;;;;;;5059535;28;20216;-73
2021/04/02 12:55:21;;;;;;;3.50;1.40;;;19.40;32.40;;;;;;5052303;28;20895;-71